Terminal Aerodrome Forecast
Issued by NWS Pittsburgh, PA

Home | Current Version | Previous Version | Text Only | Print | Product List | Glossary On
Versions: 1 2 3 4 5 6 7 8 9 10 11 12 13 14 15 16 17 18 19 20 21 22 23 24 25 26 27 28 29 30 31 32 33 34 35 36 37 38 39 40
000
FTUS41 KPBZ 282300
TAFPIT
TAF
KPIT 282323Z 2900/3006 21005KT P6SM SCT035 BKN100
      TEMPO 2900/2902 -SHSN
     FM290400 16004KT P6SM BKN100
     FM291800 18008KT P6SM BKN035=

USA.gov is the U.S. government's official web portal to all federal, state and local government web resources and services.